createdAt,value
2022-07-28T00:00:08.556Z,6.20
2022-07-28T00:00:37.166Z,4.40
2022-07-28T00:01:07.731Z,5.00
2022-07-28T00:01:38.368Z,5.90
2022-07-28T00:02:08.980Z,6.70
2022-07-28T00:02:39.608Z,5.40
2022-07-28T00:03:10.256Z,6.10
2022-07-28T00:03:40.798Z,5.80
2022-07-28T00:04:11.792Z,5.30
2022-07-28T00:04:41.915Z,4.40
2022-07-28T00:05:12.479Z,7.10
2022-07-28T00:05:43.052Z,7.30
2022-07-28T00:06:13.615Z,7.40
2022-07-28T00:06:44.162Z,5.30
2022-07-28T00:07:14.685Z,5.70
2022-07-28T00:07:45.224Z,5.20
2022-07-28T00:08:15.808Z,7.40
2022-07-28T00:08:46.366Z,6.20
2022-07-28T00:09:16.952Z,6.20
2022-07-28T00:09:47.670Z,5.10
2022-07-28T00:10:18.226Z,5.00
2022-07-28T00:10:48.770Z,5.30
2022-07-28T00:11:19.346Z,5.60
2022-07-28T00:11:54.320Z,5.40
2022-07-28T00:12:20.646Z,5.90
2022-07-28T00:12:51.170Z,5.10
2022-07-28T00:13:21.754Z,4.40
2022-07-28T00:13:52.333Z,6.60
2022-07-28T00:14:22.896Z,6.70
2022-07-28T00:14:53.444Z,6.40
2022-07-28T00:15:24.027Z,5.90
2022-07-28T00:15:54.683Z,8.60
2022-07-28T00:16:25.397Z,5.10
2022-07-28T00:16:55.971Z,6.20
2022-07-28T00:17:26.524Z,6.90
2022-07-28T00:17:57.103Z,5.40
2022-07-28T00:18:27.681Z,6.60
2022-07-28T00:18:58.257Z,5.60
2022-07-28T00:19:28.815Z,6.60
2022-07-28T00:19:59.372Z,5.10
2022-07-28T00:20:29.957Z,7.60
2022-07-28T00:21:00.486Z,4.90
2022-07-28T00:21:31.059Z,4.70
2022-07-28T00:22:01.587Z,4.90
2022-07-28T00:22:32.150Z,5.30
2022-07-28T00:23:02.721Z,5.30
2022-07-28T00:23:39.167Z,5.60
2022-07-28T00:24:04.071Z,4.50
2022-07-28T00:24:34.643Z,6.10
2022-07-28T00:25:05.176Z,5.40
2022-07-28T00:25:35.746Z,5.40
2022-07-28T00:26:06.355Z,5.60
2022-07-28T00:26:36.919Z,5.10
2022-07-28T00:27:07.462Z,7.60
2022-07-28T00:27:38.037Z,5.70
2022-07-28T00:28:08.593Z,5.00
2022-07-28T00:28:39.121Z,6.80
2022-07-28T00:29:09.676Z,4.90
2022-07-28T00:29:49.338Z,4.20
2022-07-28T00:30:10.986Z,7.60
2022-07-28T00:30:41.692Z,5.10
2022-07-28T00:31:13.077Z,4.70
2022-07-28T00:31:43.390Z,5.20
2022-07-28T00:32:14.085Z,5.90
2022-07-28T00:32:44.767Z,5.70
2022-07-28T00:33:15.522Z,5.00
2022-07-28T00:33:46.080Z,6.10
2022-07-28T00:34:17.152Z,5.10
2022-07-28T00:34:47.446Z,5.40
2022-07-28T00:35:18.025Z,4.80
2022-07-28T00:35:48.810Z,6.20
2022-07-28T00:36:19.818Z,6.70
2022-07-28T00:36:50.596Z,7.90
2022-07-28T00:37:21.122Z,5.70
2022-07-28T00:37:51.680Z,5.10
2022-07-28T00:38:23.391Z,6.60
2022-07-28T00:38:53.442Z,5.80
2022-07-28T00:39:23.986Z,7.00
2022-07-28T00:39:54.520Z,6.70
2022-07-28T00:40:25.130Z,5.50
2022-07-28T00:40:55.666Z,5.60
2022-07-28T00:41:26.218Z,4.70
2022-07-28T00:41:56.763Z,5.20
2022-07-28T00:42:27.309Z,5.50
2022-07-28T00:42:57.886Z,5.80
2022-07-28T00:43:28.456Z,5.80
2022-07-28T00:43:59.013Z,4.60
2022-07-28T00:44:29.579Z,6.10
2022-07-28T00:45:00.135Z,7.30
2022-07-28T00:45:30.718Z,5.20
2022-07-28T00:46:01.251Z,7.70
2022-07-28T00:46:31.877Z,4.90
2022-07-28T00:47:02.479Z,5.40
2022-07-28T00:47:33.885Z,5.40
2022-07-28T00:48:03.751Z,5.00
2022-07-28T00:48:34.391Z,7.50
2022-07-28T00:49:05.005Z,6.90
2022-07-28T00:49:35.556Z,5.60
2022-07-28T00:50:06.113Z,6.00
2022-07-28T00:50:36.675Z,4.90
2022-07-28T00:51:07.203Z,5.10
2022-07-28T00:51:37.726Z,5.00
2022-07-28T00:52:08.280Z,5.00
2022-07-28T00:52:38.828Z,5.70
2022-07-28T00:53:09.379Z,6.50
2022-07-28T00:53:39.916Z,6.70
2022-07-28T00:54:10.857Z,5.20
2022-07-28T00:54:41.181Z,6.00
2022-07-28T00:55:11.768Z,4.80
2022-07-28T00:56:04.117Z,4.50
2022-07-28T00:56:13.118Z,4.70
2022-07-28T00:56:43.645Z,5.30
2022-07-28T00:57:14.205Z,4.90
2022-07-28T00:57:44.853Z,5.10
2022-07-28T00:58:15.381Z,4.40
2022-07-28T00:58:45.939Z,7.30
2022-07-28T00:59:16.532Z,4.60
2022-07-28T00:59:47.086Z,5.60
2022-07-28T01:00:17.649Z,5.00
2022-07-28T01:00:48.198Z,6.10
2022-07-28T01:01:18.823Z,6.50
2022-07-28T01:01:49.528Z,6.10
2022-07-28T01:02:20.097Z,4.90
2022-07-28T01:02:50.973Z,5.80
2022-07-28T01:03:21.549Z,5.30
2022-07-28T01:03:52.112Z,6.80
2022-07-28T01:04:22.676Z,5.40
2022-07-28T01:04:53.258Z,5.00
2022-07-28T01:05:43.863Z,6.30
2022-07-28T01:05:54.619Z,5.30
2022-07-28T01:06:25.168Z,6.50
2022-07-28T01:06:55.760Z,6.30
2022-07-28T01:07:26.352Z,7.10
2022-07-28T01:07:56.886Z,5.70
2022-07-28T01:08:27.412Z,5.90
2022-07-28T01:08:57.992Z,5.10
2022-07-28T01:09:28.588Z,5.90
2022-07-28T01:09:59.143Z,5.60
2022-07-28T01:10:29.677Z,6.50
2022-07-28T01:11:00.257Z,6.70
2022-07-28T01:11:30.814Z,6.90
2022-07-28T01:12:01.807Z,7.90
2022-07-28T01:12:32.343Z,4.80
2022-07-28T01:13:02.913Z,5.70
2022-07-28T01:13:33.488Z,6.40
2022-07-28T01:14:04.068Z,5.20
2022-07-28T01:14:34.650Z,6.80
2022-07-28T01:15:05.185Z,5.80
2022-07-28T01:15:35.806Z,5.30
2022-07-28T01:16:06.505Z,4.90
2022-07-28T01:16:37.113Z,6.20
2022-07-28T01:17:07.674Z,5.70
2022-07-28T01:17:38.204Z,6.00
2022-07-28T01:18:08.734Z,5.50
2022-07-28T01:18:39.303Z,5.50
2022-07-28T01:19:09.831Z,4.90
2022-07-28T01:19:40.370Z,5.40
2022-07-28T01:20:10.908Z,6.50
2022-07-28T01:20:41.476Z,6.40
2022-07-28T01:21:12.008Z,5.90
2022-07-28T01:21:42.567Z,5.80
2022-07-28T01:22:13.139Z,6.80
2022-07-28T01:22:43.705Z,5.90
2022-07-28T01:23:14.276Z,5.70
2022-07-28T01:23:44.804Z,6.70
2022-07-28T01:24:16.074Z,8.10
2022-07-28T01:24:46.384Z,6.80
2022-07-28T01:25:16.954Z,6.70
2022-07-28T01:25:48.679Z,5.90
2022-07-28T01:26:18.405Z,7.70
2022-07-28T01:26:48.961Z,5.90
2022-07-28T01:27:19.492Z,7.00
2022-07-28T01:27:50.079Z,5.90
2022-07-28T01:28:20.648Z,6.50
2022-07-28T01:28:51.217Z,6.60
2022-07-28T01:29:21.794Z,5.10
2022-07-28T01:29:52.363Z,5.50
2022-07-28T01:30:22.921Z,5.60
2022-07-28T01:30:53.727Z,8.70
2022-07-28T01:31:24.357Z,7.70
2022-07-28T01:31:54.924Z,6.40
2022-07-28T01:32:25.490Z,6.10
2022-07-28T01:32:56.056Z,6.40
2022-07-28T01:33:26.607Z,5.60
2022-07-28T01:33:57.162Z,7.90
2022-07-28T01:34:27.686Z,6.40
2022-07-28T01:34:58.249Z,5.10
2022-07-28T01:35:28.837Z,5.60
2022-07-28T01:35:59.370Z,6.80
2022-07-28T01:36:29.957Z,6.50
2022-07-28T01:37:00.490Z,7.60
2022-07-28T01:37:31.026Z,6.10
2022-07-28T01:38:01.576Z,6.10
2022-07-28T01:38:32.153Z,7.60
2022-07-28T01:39:02.720Z,5.50
2022-07-28T01:39:33.272Z,6.30
2022-07-28T01:40:03.813Z,7.30
2022-07-28T01:40:34.341Z,6.50
2022-07-28T01:41:04.898Z,5.40
2022-07-28T01:41:35.643Z,6.80
2022-07-28T01:42:06.369Z,9.80
2022-07-28T01:42:36.903Z,7.00
2022-07-28T01:43:07.436Z,5.60
2022-07-28T01:43:37.993Z,6.50
2022-07-28T01:44:08.569Z,8.60
2022-07-28T01:44:39.125Z,6.40
2022-07-28T01:45:09.686Z,7.40
2022-07-28T01:45:40.234Z,6.60
2022-07-28T01:46:10.830Z,8.20
2022-07-28T01:46:41.538Z,6.80
2022-07-28T01:47:12.085Z,6.50
2022-07-28T01:47:42.619Z,7.00
2022-07-28T01:48:13.187Z,7.50
2022-07-28T01:48:43.794Z,6.50
2022-07-28T01:49:14.442Z,6.10
2022-07-28T01:49:45.027Z,5.50
2022-07-28T01:50:15.603Z,5.90
2022-07-28T01:50:46.127Z,5.70
2022-07-28T01:51:16.707Z,7.70
2022-07-28T01:51:47.286Z,6.10
2022-07-28T01:52:17.857Z,10.40
2022-07-28T01:52:48.433Z,7.30
2022-07-28T01:53:18.955Z,7.80
2022-07-28T01:53:49.502Z,6.70
2022-07-28T01:54:20.038Z,8.20
2022-07-28T01:54:50.612Z,7.30
2022-07-28T01:55:21.148Z,9.40
2022-07-28T01:55:51.731Z,8.90
2022-07-28T01:56:22.264Z,6.80
2022-07-28T01:56:52.842Z,8.70
2022-07-28T01:57:23.426Z,7.20
2022-07-28T01:57:53.995Z,6.30
2022-07-28T01:58:24.587Z,6.30
2022-07-28T01:58:55.118Z,9.60
2022-07-28T01:59:25.669Z,7.00
2022-07-28T01:59:56.214Z,5.70
2022-07-28T02:00:27.731Z,6.70
2022-07-28T02:00:57.453Z,7.70
2022-07-28T02:01:28.010Z,7.30
2022-07-28T02:01:58.615Z,8.50
2022-07-28T02:02:29.193Z,8.60
2022-07-28T02:02:59.739Z,6.40
2022-07-28T02:03:30.321Z,7.00
2022-07-28T02:04:00.883Z,9.40
2022-07-28T02:04:31.499Z,7.50
2022-07-28T02:05:02.188Z,7.00
2022-07-28T02:05:32.813Z,6.30
2022-07-28T02:06:03.364Z,8.90
2022-07-28T02:06:33.900Z,5.80
2022-07-28T02:07:04.453Z,8.50
2022-07-28T02:07:35.014Z,7.90
2022-07-28T02:08:05.570Z,7.50
2022-07-28T02:08:36.128Z,5.70
2022-07-28T02:09:06.655Z,6.50
2022-07-28T02:09:37.216Z,8.50
2022-07-28T02:10:07.771Z,6.80
2022-07-28T02:10:38.339Z,7.70
2022-07-28T02:11:09.833Z,7.40
2022-07-28T02:11:39.532Z,7.00
2022-07-28T02:12:10.082Z,7.40
2022-07-28T02:12:40.667Z,8.60
2022-07-28T02:13:11.232Z,7.60
2022-07-28T02:13:41.817Z,7.30
2022-07-28T02:14:12.640Z,8.20
2022-07-28T02:14:42.887Z,6.10
2022-07-28T02:15:13.447Z,6.70
2022-07-28T02:15:44.028Z,7.50
2022-07-28T02:16:14.728Z,7.30
2022-07-28T02:16:45.357Z,6.50
2022-07-28T02:17:15.939Z,6.90
2022-07-28T02:17:46.499Z,7.20
2022-07-28T02:18:17.043Z,6.60
2022-07-28T02:18:47.595Z,9.20
2022-07-28T02:19:18.144Z,8.40
2022-07-28T02:19:48.693Z,7.30
2022-07-28T02:20:19.219Z,8.30
2022-07-28T02:20:49.762Z,6.00
2022-07-28T02:21:20.324Z,7.00
2022-07-28T02:21:50.894Z,6.70
2022-07-28T02:22:21.472Z,7.80
2022-07-28T02:22:52.211Z,7.00
2022-07-28T02:23:22.743Z,6.70
2022-07-28T02:23:53.337Z,8.10
2022-07-28T02:24:23.902Z,7.20
2022-07-28T02:24:54.460Z,7.70
2022-07-28T02:25:25.008Z,7.10
2022-07-28T02:25:55.584Z,6.30
2022-07-28T02:26:26.125Z,9.00
2022-07-28T02:26:56.701Z,7.40
2022-07-28T02:27:28.064Z,6.60
2022-07-28T02:27:57.893Z,7.60
2022-07-28T02:28:28.445Z,5.50
2022-07-28T02:28:59.048Z,6.50
2022-07-28T02:29:49.881Z,6.80
2022-07-28T02:30:00.430Z,7.60
2022-07-28T02:30:31.002Z,7.40
2022-07-28T02:31:01.707Z,8.10
2022-07-28T02:31:32.354Z,7.50
2022-07-28T02:32:03.209Z,7.00
2022-07-28T02:32:33.738Z,6.80
2022-07-28T02:33:04.751Z,8.30
2022-07-28T02:33:58.634Z,6.80
2022-07-28T02:34:07.149Z,7.10
2022-07-28T02:34:36.769Z,7.50
2022-07-28T02:35:09.348Z,9.10
2022-07-28T02:35:38.051Z,6.20
2022-07-28T02:36:08.666Z,6.30
2022-07-28T02:36:41.393Z,8.20
2022-07-28T02:37:10.548Z,6.90
2022-07-28T02:37:41.388Z,5.90
2022-07-28T02:38:11.914Z,7.10
2022-07-28T02:38:42.450Z,9.30
2022-07-28T02:39:13.026Z,7.00
2022-07-28T02:39:43.593Z,7.00
2022-07-28T02:40:14.394Z,7.30
2022-07-28T02:40:44.948Z,7.40
2022-07-28T02:41:15.521Z,7.90
2022-07-28T02:41:46.076Z,7.50
2022-07-28T02:42:16.636Z,6.20
2022-07-28T02:42:47.167Z,8.10
2022-07-28T02:43:17.750Z,6.60
2022-07-28T02:43:49.762Z,9.90
2022-07-28T02:44:18.972Z,7.10
2022-07-28T02:44:49.523Z,6.80
2022-07-28T02:45:20.059Z,6.90
2022-07-28T02:45:50.682Z,8.40
2022-07-28T02:46:21.331Z,8.30
2022-07-28T02:46:51.907Z,8.40
2022-07-28T02:47:22.464Z,9.20
2022-07-28T02:47:53.030Z,8.30
2022-07-28T02:48:23.578Z,9.70
2022-07-28T02:48:54.209Z,7.40
2022-07-28T02:49:24.951Z,7.40
2022-07-28T02:49:55.549Z,9.10
2022-07-28T02:50:26.121Z,8.40
2022-07-28T02:50:56.690Z,6.90
2022-07-28T02:51:27.246Z,8.00
2022-07-28T02:51:57.784Z,7.70
2022-07-28T02:52:28.355Z,8.60
2022-07-28T02:52:58.939Z,7.20
2022-07-28T02:53:29.505Z,7.40
2022-07-28T02:54:00.064Z,8.10
2022-07-28T02:54:30.591Z,8.60
2022-07-28T02:55:01.171Z,7.50
2022-07-28T02:55:31.736Z,9.50
2022-07-28T02:56:02.272Z,9.30
2022-07-28T02:56:32.851Z,9.60
2022-07-28T02:57:03.419Z,6.80
2022-07-28T02:57:33.940Z,7.20
2022-07-28T02:58:05.382Z,9.10
2022-07-28T02:58:35.075Z,7.60
2022-07-28T02:59:05.646Z,9.50
2022-07-28T02:59:36.175Z,7.80
2022-07-28T03:00:06.721Z,8.70
2022-07-28T03:00:37.331Z,9.90
2022-07-28T03:01:07.943Z,7.20
2022-07-28T03:01:38.698Z,9.50
2022-07-28T03:02:09.292Z,9.00
2022-07-28T03:02:39.866Z,9.20
2022-07-28T03:03:10.429Z,8.30
2022-07-28T03:03:44.022Z,10.80
2022-07-28T03:04:11.996Z,7.30
2022-07-28T03:04:42.296Z,6.50
2022-07-28T03:05:13.012Z,9.80
2022-07-28T03:05:43.612Z,10.10
2022-07-28T03:06:14.169Z,10.30
2022-07-28T03:06:44.724Z,9.50
2022-07-28T03:07:15.266Z,8.60
2022-07-28T03:07:51.256Z,10.20
2022-07-28T03:08:16.792Z,8.30
2022-07-28T03:08:47.830Z,7.20
2022-07-28T03:09:18.365Z,8.50
2022-07-28T03:09:48.894Z,11.00
2022-07-28T03:10:19.458Z,7.70
2022-07-28T03:10:50.183Z,8.90
2022-07-28T03:11:21.264Z,10.70
2022-07-28T03:11:51.805Z,9.30
2022-07-28T03:12:22.368Z,9.60
2022-07-28T03:12:52.936Z,7.70
2022-07-28T03:13:23.501Z,7.90
2022-07-28T03:13:53.977Z,8.10
2022-07-28T03:14:24.515Z,9.40
2022-07-28T03:14:55.522Z,9.20
2022-07-28T03:15:26.051Z,9.00
2022-07-28T03:15:57.052Z,9.70
2022-07-28T03:16:28.207Z,7.50
2022-07-28T03:16:58.882Z,8.50
2022-07-28T03:17:29.437Z,9.40
2022-07-28T03:17:59.982Z,8.40
2022-07-28T03:18:30.493Z,9.40
2022-07-28T03:19:01.517Z,7.80
2022-07-28T03:19:32.047Z,13.10
2022-07-28T03:20:03.060Z,7.60
2022-07-28T03:20:34.107Z,9.60
2022-07-28T03:21:04.618Z,8.00
2022-07-28T03:21:35.698Z,9.00
2022-07-28T03:22:06.239Z,7.10
2022-07-28T03:22:37.054Z,9.50
2022-07-28T03:23:08.085Z,9.00
2022-07-28T03:23:38.595Z,7.70
2022-07-28T03:24:09.609Z,9.90
2022-07-28T03:24:40.130Z,9.80
2022-07-28T03:25:11.134Z,11.20
2022-07-28T03:25:42.171Z,6.70
2022-07-28T03:26:12.679Z,8.80
2022-07-28T03:26:43.717Z,10.30
2022-07-28T03:27:14.240Z,8.00
2022-07-28T03:27:45.243Z,9.50
2022-07-28T03:28:16.258Z,9.30
2022-07-28T03:28:46.813Z,8.80
2022-07-28T03:29:17.329Z,9.40
2022-07-28T03:29:48.335Z,10.50
2022-07-28T03:30:19.350Z,8.80
2022-07-28T03:30:50.486Z,7.90
2022-07-28T03:31:21.093Z,10.60
2022-07-28T03:31:51.597Z,9.20
2022-07-28T03:32:22.627Z,10.00
2022-07-28T03:32:53.629Z,12.00
2022-07-28T03:33:24.669Z,12.10
2022-07-28T03:33:55.700Z,10.40
2022-07-28T03:34:26.705Z,9.80
2022-07-28T03:34:57.729Z,8.70
2022-07-28T03:35:28.251Z,7.90
2022-07-28T03:35:59.283Z,10.00
2022-07-28T03:36:30.285Z,8.30
2022-07-28T03:37:01.313Z,10.10
2022-07-28T03:37:32.329Z,8.70
2022-07-28T03:38:03.329Z,9.10
2022-07-28T03:38:33.850Z,10.50
2022-07-28T03:39:04.893Z,7.80
2022-07-28T03:39:35.411Z,9.60
2022-07-28T03:40:06.440Z,8.30
2022-07-28T03:40:37.450Z,8.80
2022-07-28T03:41:08.496Z,7.90
2022-07-28T03:41:39.022Z,8.30
2022-07-28T03:42:10.033Z,8.90
2022-07-28T03:42:41.038Z,8.20
2022-07-28T03:43:11.552Z,10.60
2022-07-28T03:43:42.574Z,10.10
2022-07-28T03:44:13.421Z,9.80
2022-07-28T03:44:44.083Z,9.30
2022-07-28T03:45:15.086Z,7.60
2022-07-28T03:45:46.465Z,10.80
2022-07-28T03:46:17.141Z,10.30
2022-07-28T03:46:47.621Z,10.00
2022-07-28T03:47:18.152Z,9.90
2022-07-28T03:47:48.661Z,8.80
2022-07-28T03:48:19.674Z,10.90
2022-07-28T03:48:50.768Z,9.10
2022-07-28T03:49:21.401Z,10.10
2022-07-28T03:49:51.931Z,9.00
2022-07-28T03:50:22.491Z,8.90
2022-07-28T03:50:53.502Z,10.30
2022-07-28T03:51:24.028Z,10.20
2022-07-28T03:51:55.043Z,11.10
2022-07-28T03:52:26.128Z,9.70
2022-07-28T03:52:56.594Z,9.80
2022-07-28T03:53:27.136Z,10.50
2022-07-28T03:53:58.152Z,10.30
2022-07-28T03:54:29.152Z,9.10
2022-07-28T03:55:00.153Z,9.20
2022-07-28T03:55:31.203Z,12.70
2022-07-28T03:56:01.734Z,9.00
2022-07-28T03:56:32.769Z,9.50
2022-07-28T03:57:03.764Z,8.60
2022-07-28T03:57:34.766Z,11.40
2022-07-28T03:58:05.800Z,9.10
2022-07-28T03:58:36.822Z,10.60
2022-07-28T03:59:07.839Z,9.30
2022-07-28T03:59:38.863Z,13.40
2022-07-28T04:00:10.033Z,9.90
2022-07-28T04:00:40.529Z,10.30
2022-07-28T04:01:11.627Z,7.20
2022-07-28T04:01:42.256Z,9.20
2022-07-28T04:02:12.865Z,9.30
2022-07-28T04:02:43.590Z,9.70
2022-07-28T04:03:35.354Z,9.30
2022-07-28T04:03:44.891Z,9.10
2022-07-28T04:04:16.327Z,10.00
2022-07-28T04:04:46.465Z,7.60
2022-07-28T04:05:17.293Z,10.60
2022-07-28T04:05:48.292Z,12.00
2022-07-28T04:06:19.314Z,11.10
2022-07-28T04:06:50.335Z,11.10
2022-07-28T04:07:21.333Z,8.40
2022-07-28T04:07:52.345Z,9.20
2022-07-28T04:08:22.881Z,10.80
2022-07-28T04:08:53.436Z,10.90
2022-07-28T04:09:24.433Z,12.50
2022-07-28T04:09:55.461Z,9.70
2022-07-28T04:10:25.963Z,11.80
2022-07-28T04:10:56.998Z,9.70
2022-07-28T04:11:27.990Z,11.30
2022-07-28T04:11:58.987Z,10.00
2022-07-28T04:12:29.991Z,8.90
2022-07-28T04:13:00.997Z,11.60
2022-07-28T04:13:32.110Z,9.60
2022-07-28T04:14:02.622Z,9.70
2022-07-28T04:14:33.638Z,12.80
2022-07-28T04:15:04.659Z,10.70
2022-07-28T04:15:35.655Z,12.30
2022-07-28T04:16:06.712Z,10.40
2022-07-28T04:16:37.761Z,10.40
2022-07-28T04:17:08.376Z,11.90
2022-07-28T04:17:38.917Z,11.00
2022-07-28T04:18:09.949Z,9.50
2022-07-28T04:18:40.469Z,10.20
2022-07-28T04:19:11.478Z,9.50
2022-07-28T04:19:41.995Z,11.90
2022-07-28T04:20:12.515Z,11.10
2022-07-28T04:20:43.550Z,10.50
2022-07-28T04:21:14.561Z,12.90
2022-07-28T04:21:45.558Z,9.70
2022-07-28T04:22:16.565Z,9.00
2022-07-28T04:22:47.589Z,11.10
2022-07-28T04:23:18.627Z,9.20
2022-07-28T04:23:49.142Z,10.60
2022-07-28T04:24:20.045Z,9.20
2022-07-28T04:24:50.208Z,10.30
2022-07-28T04:25:21.203Z,10.40
2022-07-28T04:25:52.197Z,9.20
2022-07-28T04:26:23.246Z,10.80
2022-07-28T04:26:54.261Z,11.60
2022-07-28T04:27:25.276Z,12.30
2022-07-28T04:27:56.304Z,11.20
2022-07-28T04:28:27.334Z,12.00
2022-07-28T04:28:58.340Z,8.80
2022-07-28T04:29:29.360Z,11.50
2022-07-28T04:30:00.356Z,11.70
2022-07-28T04:30:31.457Z,9.50
2022-07-28T04:31:02.006Z,11.00
2022-07-28T04:31:32.648Z,12.60
2022-07-28T04:32:03.245Z,9.20
2022-07-28T04:32:33.776Z,10.50
2022-07-28T04:33:04.788Z,9.10
2022-07-28T04:33:35.809Z,11.10
2022-07-28T04:34:07.100Z,11.00
2022-07-28T04:34:37.576Z,10.40
2022-07-28T04:35:08.614Z,9.30
2022-07-28T04:35:39.633Z,10.30
2022-07-28T04:36:10.662Z,8.80
2022-07-28T04:36:41.730Z,10.30
2022-07-28T04:37:12.747Z,9.30
2022-07-28T04:37:43.254Z,11.90
2022-07-28T04:38:14.272Z,10.50
2022-07-28T04:38:45.307Z,11.80
2022-07-28T04:39:16.312Z,10.60
2022-07-28T04:39:47.345Z,11.00
2022-07-28T04:40:18.346Z,9.50
2022-07-28T04:40:49.362Z,10.30
2022-07-28T04:41:20.380Z,9.40
2022-07-28T04:41:50.897Z,10.20
2022-07-28T04:42:21.971Z,13.90
2022-07-28T04:42:52.448Z,10.60
2022-07-28T04:43:23.472Z,10.80
2022-07-28T04:43:54.474Z,12.10
2022-07-28T04:44:25.500Z,11.00
2022-07-28T04:44:56.500Z,11.00
2022-07-28T04:45:27.505Z,11.10
2022-07-28T04:45:58.126Z,12.20
2022-07-28T04:46:28.681Z,12.10
2022-07-28T04:46:59.218Z,13.70
2022-07-28T04:47:30.235Z,10.30
2022-07-28T04:48:00.728Z,9.60
2022-07-28T04:48:31.740Z,10.10
2022-07-28T04:49:02.769Z,10.40
2022-07-28T04:49:35.635Z,9.90
2022-07-28T04:50:03.944Z,12.70
2022-07-28T04:50:34.975Z,13.20
2022-07-28T04:51:05.988Z,10.30
2022-07-28T04:51:37.016Z,11.20
2022-07-28T04:52:08.022Z,10.50
2022-07-28T04:52:39.035Z,9.70
2022-07-28T04:53:10.048Z,10.50
2022-07-28T04:53:41.053Z,11.40
2022-07-28T04:54:12.291Z,13.60
2022-07-28T04:54:42.927Z,10.40
2022-07-28T04:55:13.449Z,10.00
2022-07-28T04:55:44.471Z,10.80
2022-07-28T04:56:15.160Z,10.70
2022-07-28T04:56:46.154Z,10.20
2022-07-28T04:57:17.169Z,14.20
2022-07-28T04:57:47.824Z,11.50
2022-07-28T04:58:18.386Z,11.90
2022-07-28T04:58:48.890Z,10.40
2022-07-28T04:59:19.928Z,10.00
2022-07-28T04:59:50.890Z,12.30
2022-07-28T05:00:22.104Z,9.70
2022-07-28T05:00:52.700Z,10.70
2022-07-28T05:01:23.436Z,11.00
2022-07-28T05:01:53.963Z,9.90
2022-07-28T05:02:24.983Z,12.20
2022-07-28T05:02:55.986Z,10.60
2022-07-28T05:03:27.020Z,11.10
2022-07-28T05:03:58.023Z,10.20
2022-07-28T05:04:29.095Z,11.00
2022-07-28T05:04:59.716Z,15.10
2022-07-28T05:05:30.222Z,11.80
2022-07-28T05:06:01.218Z,9.20
2022-07-28T05:06:32.247Z,12.00
2022-07-28T05:07:07.892Z,12.60
2022-07-28T05:07:33.984Z,11.30
2022-07-28T05:08:04.981Z,11.40
2022-07-28T05:08:36.016Z,13.30
2022-07-28T05:09:07.020Z,12.40
2022-07-28T05:09:38.031Z,14.30
2022-07-28T05:10:09.037Z,11.10
2022-07-28T05:10:40.040Z,15.20
2022-07-28T05:11:11.054Z,11.20
2022-07-28T05:11:42.078Z,10.80
2022-07-28T05:12:13.090Z,12.80
2022-07-28T05:12:44.097Z,9.90
2022-07-28T05:13:15.115Z,13.00
2022-07-28T05:13:45.651Z,11.80
2022-07-28T05:14:16.563Z,12.60
2022-07-28T05:14:47.194Z,14.40
2022-07-28T05:15:18.198Z,10.00
2022-07-28T05:15:49.217Z,10.60
2022-07-28T05:16:20.320Z,10.20
2022-07-28T05:16:50.916Z,11.10
2022-07-28T05:17:21.446Z,13.20
2022-07-28T05:17:52.451Z,9.70
2022-07-28T05:18:23.445Z,11.50
2022-07-28T05:18:54.476Z,11.70
2022-07-28T05:19:24.997Z,11.90
2022-07-28T05:19:56.012Z,10.50
2022-07-28T05:20:27.012Z,14.00
2022-07-28T05:20:58.009Z,12.00
2022-07-28T05:21:29.036Z,11.20
2022-07-28T05:22:00.032Z,11.60
2022-07-28T05:22:31.030Z,12.40
2022-07-28T05:23:01.809Z,11.50
2022-07-28T05:23:32.846Z,12.30
2022-07-28T05:24:03.355Z,10.50
2022-07-28T05:24:34.373Z,11.60
2022-07-28T05:25:04.881Z,13.00
2022-07-28T05:25:35.903Z,12.20
2022-07-28T05:26:06.421Z,11.80
2022-07-28T05:26:37.445Z,9.90
2022-07-28T05:27:08.489Z,12.10
2022-07-28T05:27:39.497Z,11.40
2022-07-28T05:28:10.507Z,11.00
2022-07-28T05:28:41.505Z,12.80
2022-07-28T05:29:12.539Z,10.40
2022-07-28T05:29:47.661Z,11.90
2022-07-28T05:30:14.395Z,12.20
2022-07-28T05:30:45.466Z,14.50
2022-07-28T05:31:16.004Z,11.70
2022-07-28T05:31:46.554Z,9.80
2022-07-28T05:32:18.019Z,11.70
2022-07-28T05:32:47.672Z,11.10
2022-07-28T05:33:18.666Z,14.40
2022-07-28T05:33:49.668Z,15.60
2022-07-28T05:34:20.643Z,10.70
2022-07-28T05:34:51.660Z,11.60
2022-07-28T05:35:22.211Z,12.10
2022-07-28T05:35:53.214Z,10.90
2022-07-28T05:36:24.231Z,14.30
2022-07-28T05:36:55.234Z,13.20
2022-07-28T05:37:26.260Z,12.70
2022-07-28T05:37:57.255Z,12.70
2022-07-28T05:38:28.270Z,11.10
2022-07-28T05:38:59.314Z,11.60
2022-07-28T05:39:30.329Z,10.60
2022-07-28T05:40:01.327Z,13.30
2022-07-28T05:40:32.341Z,11.00
2022-07-28T05:41:02.907Z,10.60
2022-07-28T05:41:33.384Z,13.60
2022-07-28T05:42:04.045Z,13.40
2022-07-28T05:42:35.048Z,9.70
2022-07-28T05:43:06.078Z,12.40
2022-07-28T05:43:37.093Z,12.20
2022-07-28T05:44:08.135Z,12.60
2022-07-28T05:44:38.704Z,13.10
2022-07-28T05:45:16.252Z,13.90
2022-07-28T05:45:39.973Z,11.20
2022-07-28T05:46:10.553Z,13.60
2022-07-28T05:46:41.082Z,10.30
2022-07-28T05:47:12.111Z,12.20
2022-07-28T05:47:42.613Z,9.60
2022-07-28T05:48:13.624Z,11.90
2022-07-28T05:48:44.724Z,10.00
2022-07-28T05:49:15.374Z,9.70
2022-07-28T05:49:45.923Z,9.60
2022-07-28T05:50:17.196Z,10.60
2022-07-28T05:50:47.852Z,10.40
2022-07-28T05:51:18.868Z,13.50
2022-07-28T05:51:49.883Z,11.50
2022-07-28T05:52:20.889Z,11.50
2022-07-28T05:52:51.900Z,10.00
2022-07-28T05:53:22.415Z,10.10
2022-07-28T05:53:53.425Z,9.70
2022-07-28T05:54:23.957Z,10.20
2022-07-28T05:54:54.929Z,11.90
2022-07-28T05:55:25.946Z,11.90
2022-07-28T05:55:59.761Z,13.10
2022-07-28T05:56:27.834Z,11.40
2022-07-28T05:56:58.832Z,10.60
2022-07-28T05:57:29.832Z,11.90
2022-07-28T05:58:00.855Z,11.00
2022-07-28T05:58:31.864Z,11.20
2022-07-28T05:59:02.856Z,10.30
2022-07-28T05:59:33.899Z,8.70
2022-07-28T06:00:04.490Z,11.10
2022-07-28T06:00:35.524Z,10.70
2022-07-28T06:01:06.115Z,12.30
2022-07-28T06:01:36.773Z,13.30
2022-07-28T06:02:07.363Z,11.90
2022-07-28T06:02:37.930Z,14.50
2022-07-28T06:03:08.445Z,12.30
2022-07-28T06:03:42.367Z,10.40
2022-07-28T06:04:26.448Z,11.50
2022-07-28T06:04:40.785Z,11.30
2022-07-28T06:05:11.786Z,10.80
2022-07-28T06:05:59.357Z,10.90
2022-07-28T06:06:16.067Z,11.10
2022-07-28T06:06:44.140Z,10.60
2022-07-28T06:07:15.170Z,12.70
2022-07-28T06:07:46.167Z,10.80
2022-07-28T06:08:17.165Z,13.00
2022-07-28T06:08:47.690Z,9.70
2022-07-28T06:09:18.696Z,11.40
2022-07-28T06:09:49.699Z,11.50
2022-07-28T06:10:20.251Z,11.40
2022-07-28T06:10:50.755Z,11.90
2022-07-28T06:11:23.091Z,13.30
2022-07-28T06:11:52.657Z,10.40
2022-07-28T06:12:23.658Z,14.20
2022-07-28T06:12:54.677Z,11.90
2022-07-28T06:13:25.678Z,12.20
2022-07-28T06:13:56.675Z,11.10
2022-07-28T06:14:27.675Z,11.90
2022-07-28T06:14:58.687Z,12.10
2022-07-28T06:15:29.708Z,10.60
2022-07-28T06:16:00.772Z,12.90
2022-07-28T06:16:31.348Z,11.90
2022-07-28T06:17:01.886Z,12.90
2022-07-28T06:17:32.860Z,11.80
2022-07-28T06:18:03.886Z,11.60
2022-07-28T06:18:34.888Z,15.00
2022-07-28T06:19:05.898Z,11.00
2022-07-28T06:19:36.897Z,11.50
2022-07-28T06:20:07.930Z,10.00
2022-07-28T06:20:38.988Z,11.30
2022-07-28T06:21:09.503Z,13.00
2022-07-28T06:21:41.585Z,11.10
2022-07-28T06:22:11.150Z,10.20
2022-07-28T06:22:41.662Z,11.60
2022-07-28T06:23:12.656Z,17.00
2022-07-28T06:23:43.656Z,12.20
2022-07-28T06:24:15.111Z,9.40
2022-07-28T06:24:45.482Z,11.60
2022-07-28T06:25:16.502Z,10.80
2022-07-28T06:25:47.534Z,10.50
2022-07-28T06:26:18.040Z,10.80
2022-07-28T06:26:49.071Z,10.90
2022-07-28T06:27:19.589Z,12.50
2022-07-28T06:27:50.607Z,10.70
2022-07-28T06:28:21.614Z,13.80
2022-07-28T06:28:52.665Z,11.80
2022-07-28T06:29:23.155Z,12.20
2022-07-28T06:29:54.151Z,10.90
2022-07-28T06:30:25.221Z,11.00
2022-07-28T06:30:55.711Z,10.60
2022-07-28T06:31:26.828Z,12.10
2022-07-28T06:31:57.444Z,13.20
2022-07-28T06:32:27.952Z,12.00
2022-07-28T06:32:58.965Z,11.30
2022-07-28T06:33:29.493Z,11.60
2022-07-28T06:34:00.511Z,10.20
2022-07-28T06:34:31.515Z,9.90
2022-07-28T06:35:02.526Z,10.90
2022-07-28T06:35:33.564Z,9.10
2022-07-28T06:36:04.312Z,13.90
2022-07-28T06:36:35.320Z,10.40
2022-07-28T06:37:06.316Z,10.00
2022-07-28T06:37:37.322Z,10.90
2022-07-28T06:38:07.962Z,13.90
2022-07-28T06:38:38.966Z,11.00
2022-07-28T06:39:09.970Z,12.60
2022-07-28T06:39:40.488Z,10.50
2022-07-28T06:40:11.514Z,14.20
2022-07-28T06:40:42.557Z,11.00
2022-07-28T06:41:13.077Z,11.40
2022-07-28T06:41:43.587Z,11.50
2022-07-28T06:42:14.594Z,11.30
2022-07-28T06:42:45.596Z,10.60
2022-07-28T06:43:16.605Z,10.30
2022-07-28T06:43:47.595Z,12.10